Arthur Maersk — OXJH2 — position and weather

sailwx.info

Track history (hours):
 
Tides and Currents Weather Stations Pressure Air Temp Water Temp Dewpoint Dewpoint Depression Visibility Wind Speed Wind Dir Waves Ship Positions

Arthur Maersk

Last reported at 2015-May-18 04:33 UTC. Time now 2015-May-25 17:38 UTC.
Position N 01°53' E 102°24'.

Length 352 m; draft 13.5 m.

Type: Cargo ship. MMSI: 220221000.

Date/timePositionNaut miles runAvg speedWind from/ knotsBaromVisibWave heightAir tempDewpointWater temp
2015-May-18 04:33N 01°53' E 102°24'1919.4
2015-May-18 03:33N 01°44' E 102°42'7013.0
2015-May-17 22:10N 01°16' E 103°46'0 0.0
2015-May-17 18:31N 01°16' E 103°46'0 0.0
2015-May-17 17:28N 01°16' E 103°46'0 0.0
2015-May-17 12:25N 01°16' E 103°46'0 0.0
2015-May-17 06:16N 01°16' E 103°46'0 0.0
2015-May-17 05:31N 01°16' E 103°46'0 0.0
2015-May-17 04:22N 01°16' E 103°46'0 0.0
2015-May-17 00:16N 01°16' E 103°46'0 0.0
2015-May-16 23:22N 01°16' E 103°46'0 0.0
2015-May-16 20:04N 01°16' E 103°46'0 0.0
2015-May-16 17:13N 01°16' E 103°46'0 0.0
2015-May-16 15:32N 01°16' E 103°46'4 3.9
2015-May-16 14:33N 01°13' E 103°48'10 9.9
2015-May-16 13:33N 01°15' E 103°58'1414.0
2015-May-16 12:33N 01°17' E 104°12'  
2015-May-12 18:19N 22°06' E 114°29'1013.6
2015-May-12 17:33N 22°16' E 114°29'2210.5
2015-May-12 15:30N 22°34' E 114°16'3 0.2
2015-May-12 02:14N 22°34' E 114°19'23 5.7
2015-May-11 22:15N 22°12' E 114°27'33 7.0
2015-May-11 17:33N 22°23' E 113°53'5 0.6
2015-May-11 08:33N 22°28' E 113°52'280 9.0
2015-May-10 01:17N 24°05' E 118°39'3813.6
2015-May-09 22:31N 24°27' E 119°12'35612.2
2015-May-08 17:24N 29°35' E 122°32'1011.5
2015-May-08 16:33N 29°42' E 122°24'10 9.9
2015-May-08 15:33N 29°48' E 122°15'1111.0
2015-May-08 14:34N 29°55' E 122°05'2 1.7
2015-May-08 13:19N 29°53' E 122°03'0 0.0
2015-May-08 12:15N 29°53' E 122°03'0 0.0
2015-May-08 11:30N 29°53' E 122°03'0 0.0
2015-May-08 10:25N 29°53' E 122°03'0 0.0
2015-May-08 09:07N 29°53' E 122°03'0 0.0
2015-May-08 08:19N 29°53' E 122°03'0 0.0
2015-May-08 07:13N 29°53' E 122°03'0 0.0
2015-May-08 06:19N 29°53' E 122°03'0 0.0
2015-May-08 05:31N 29°53' E 122°03'  
Track history (hours):
 
Tides and Currents Weather Stations Pressure Air Temp Water Temp Dewpoint Dewpoint Depression Visibility Wind Speed Wind Dir Waves Ship Positions

Arthur Maersk

Last reported at 2015-May-18 04:33 UTC. Time now 2015-May-25 17:38 UTC.
Position N 01°53' E 102°24'.

Length 352 m; draft 13.5 m.

Type: Cargo ship. MMSI: 220221000.

Date/timePositionNaut miles runAvg speedWind from/ knotsBaromVisibWave heightAir tempDewpointWater temp
2015-May-18 04:33N 01°53' E 102°24'1919.4
2015-May-18 03:33N 01°44' E 102°42'7013.0
2015-May-17 22:10N 01°16' E 103°46'0 0.0
2015-May-17 18:31N 01°16' E 103°46'0 0.0
2015-May-17 17:28N 01°16' E 103°46'0 0.0
2015-May-17 12:25N 01°16' E 103°46'0 0.0
2015-May-17 06:16N 01°16' E 103°46'0 0.0
2015-May-17 05:31N 01°16' E 103°46'0 0.0
2015-May-17 04:22N 01°16' E 103°46'0 0.0
2015-May-17 00:16N 01°16' E 103°46'0 0.0
2015-May-16 23:22N 01°16' E 103°46'0 0.0
2015-May-16 20:04N 01°16' E 103°46'0 0.0
2015-May-16 17:13N 01°16' E 103°46'0 0.0
2015-May-16 15:32N 01°16' E 103°46'4 3.9
2015-May-16 14:33N 01°13' E 103°48'10 9.9
2015-May-16 13:33N 01°15' E 103°58'1414.0
2015-May-16 12:33N 01°17' E 104°12'  
2015-May-12 18:19N 22°06' E 114°29'1013.6
2015-May-12 17:33N 22°16' E 114°29'2210.5
2015-May-12 15:30N 22°34' E 114°16'3 0.2
2015-May-12 02:14N 22°34' E 114°19'23 5.7
2015-May-11 22:15N 22°12' E 114°27'33 7.0
2015-May-11 17:33N 22°23' E 113°53'5 0.6
2015-May-11 08:33N 22°28' E 113°52'280 9.0
2015-May-10 01:17N 24°05' E 118°39'3813.6
2015-May-09 22:31N 24°27' E 119°12'35612.2
2015-May-08 17:24N 29°35' E 122°32'1011.5
2015-May-08 16:33N 29°42' E 122°24'10 9.9
2015-May-08 15:33N 29°48' E 122°15'1111.0
2015-May-08 14:34N 29°55' E 122°05'2 1.7
2015-May-08 13:19N 29°53' E 122°03'0 0.0
2015-May-08 12:15N 29°53' E 122°03'0 0.0
2015-May-08 11:30N 29°53' E 122°03'0 0.0
2015-May-08 10:25N 29°53' E 122°03'0 0.0
2015-May-08 09:07N 29°53' E 122°03'0 0.0
2015-May-08 08:19N 29°53' E 122°03'0 0.0
2015-May-08 07:13N 29°53' E 122°03'0 0.0
2015-May-08 06:19N 29°53' E 122°03'0 0.0
2015-May-08 05:31N 29°53' E 122°03'  

Dump ship's entire track history